Time;durP1;ratioP1;P1;durP2;ratioP2;P2;SDS_P1;SDS_P2;PMS_P1;PMS_P2;Temp;Humidity;BMP_temperature;BMP_pressure;BME280_temperature;BME280_humidity;BME280_pressure;Samples;Min_cycle;Max_cycle;Signal;HPM_P1;HPM_P2
2021/08/25 00:02:10;;;;;;;6.37;5.27;;;14.60;99.90;;;15.13;69.13;94507.44;5006026;28;20342;-67
2021/08/25 00:04:41;;;;;;;5.03;4.53;;;14.00;99.90;;;15.10;69.23;94501.88;5004551;28;20204;-67
2021/08/25 00:07:10;;;;;;;4.80;4.40;;;13.90;99.90;;;15.00;69.26;94493.91;5006825;28;20210;-68
2021/08/25 00:09:38;;;;;;;5.60;4.87;;;14.40;99.90;;;15.06;69.26;94501.63;5012708;28;20230;-67
2021/08/25 00:12:09;;;;;;;5.10;4.70;;;14.60;99.90;;;15.05;69.20;94493.88;5009925;28;20211;-67
2021/08/25 00:14:43;;;;;;;5.37;4.87;;;13.90;99.90;;;15.02;69.24;94489.09;4999424;28;20195;-67
2021/08/25 00:17:10;;;;;;;5.37;4.97;;;14.40;99.90;;;14.95;69.33;94483.25;4993849;28;20220;-67
2021/08/25 00:19:36;;;;;;;5.37;4.97;;;13.40;99.90;;;14.99;69.12;94493.13;5013042;28;20872;-68
2021/08/25 00:22:07;;;;;;;4.80;4.40;;;14.20;99.90;;;15.03;69.24;94488.03;5002856;28;20196;-68
2021/08/25 00:24:35;;;;;;;4.80;4.40;;;14.90;99.90;;;15.11;69.39;94484.78;5005060;28;20188;-68
2021/08/25 00:27:01;;;;;;;4.67;4.27;;;14.60;99.90;;;15.04;69.64;94468.28;5006468;28;20665;-68
2021/08/25 00:29:27;;;;;;;5.40;4.90;;;14.20;99.90;;;15.04;69.38;94470.94;5009382;28;20200;-68
2021/08/25 00:31:53;;;;;;;4.77;4.30;;;13.90;99.90;;;15.03;69.56;94469.34;5005049;28;20242;-68
2021/08/25 00:34:19;;;;;;;4.67;4.27;;;14.70;99.90;;;15.01;69.35;94466.16;5003728;28;20194;-68
2021/08/25 00:36:45;;;;;;;5.27;4.87;;;14.30;99.90;;;14.95;69.41;94465.38;4991363;28;20530;-68
2021/08/25 00:39:11;;;;;;;5.17;4.60;;;13.30;99.90;;;15.02;69.36;94467.72;4990182;28;20266;-68
2021/08/25 00:41:39;;;;;;;7.23;4.50;;;14.60;99.90;;;15.03;69.64;94475.47;4985600;28;20184;-67
2021/08/25 00:44:05;;;;;;;4.70;4.30;;;14.10;99.90;;;15.02;69.67;94467.72;5006224;28;20191;-67
2021/08/25 00:46:36;;;;;;;5.17;4.67;;;13.80;99.90;;;15.04;69.54;94477.06;5013504;28;20655;-67
2021/08/25 00:49:02;;;;;;;7.03;4.90;;;14.60;99.90;;;15.01;69.80;94474.94;5006658;28;20187;-69
2021/08/25 00:51:29;;;;;;;4.63;3.87;;;14.70;99.90;;;15.06;69.85;94464.25;4991188;28;20289;-68
2021/08/25 00:53:58;;;;;;;4.33;3.93;;;14.80;99.90;;;15.00;69.75;94468.03;5014636;28;20227;-67
2021/08/25 00:56:24;;;;;;;5.00;4.60;;;14.30;99.90;;;15.04;69.83;94460.25;5007816;28;20208;-66
2021/08/25 00:58:51;;;;;;;4.73;4.33;;;14.20;99.90;;;15.02;69.86;94457.84;5015775;28;20200;-68
2021/08/25 01:02:03;;;;;;;4.90;4.40;;;14.60;99.90;;;15.04;69.96;94465.59;4992658;28;20335;-67
2021/08/25 01:04:53;;;;;;;4.97;4.50;;;14.60;99.90;;;15.06;69.65;94474.91;5000063;28;20709;-68
2021/08/25 01:07:22;;;;;;;4.23;3.93;;;14.00;99.90;;;15.04;69.83;94469.03;5006945;28;20196;-69
2021/08/25 01:09:50;;;;;;;4.33;3.97;;;14.10;99.90;;;15.05;70.02;94475.19;5004759;28;20200;-68
2021/08/25 01:12:20;;;;;;;4.90;4.40;;;14.80;99.90;;;15.03;70.04;94472.00;4984516;28;20217;-68
2021/08/25 01:14:45;;;;;;;4.70;4.07;;;14.10;99.90;;;15.02;69.98;94468.53;5012338;28;20220;-69
2021/08/25 01:17:13;;;;;;;5.00;4.60;;;14.10;99.90;;;15.08;69.85;94475.44;5000227;28;20220;-68
2021/08/25 01:19:52;;;;;;;4.10;3.80;;;13.90;99.90;;;15.07;69.84;94475.72;5010674;28;20667;-68
2021/08/25 01:22:19;;;;;;;5.00;3.80;;;13.80;99.90;;;15.02;69.92;94471.19;5007284;28;20188;-68
2021/08/25 01:24:50;;;;;;;3.73;3.43;;;14.30;99.90;;;15.10;70.07;94470.63;4992486;28;20194;-68
2021/08/25 01:27:19;;;;;;;4.00;3.70;;;14.60;99.90;;;15.13;70.09;94469.25;4997307;28;20886;-68
2021/08/25 01:29:47;;;;;;;4.33;3.60;;;14.10;99.90;;;15.11;70.05;94458.84;5006078;28;20315;-68
2021/08/25 01:32:13;;;;;;;4.00;3.63;;;14.60;99.90;;;15.14;69.91;94458.28;5025783;28;20232;-68
2021/08/25 01:34:58;;;;;;;3.47;3.17;;;14.60;99.90;;;15.10;70.59;94459.94;4993953;28;20193;-68
2021/08/25 01:37:27;;;;;;;3.60;3.30;;;14.80;99.90;;;15.03;70.00;94458.66;5017800;28;20185;-68
2021/08/25 01:39:54;;;;;;;3.63;3.33;;;14.10;99.90;;;14.98;70.17;94456.81;5028321;28;20284;-67
2021/08/25 01:42:21;;;;;;;3.60;3.30;;;14.50;99.90;;;15.04;70.03;94454.94;5015388;28;20561;-67
2021/08/25 01:44:50;;;;;;;4.20;3.80;;;13.80;99.90;;;14.95;70.48;94441.34;4993903;28;20193;-68
2021/08/25 01:47:17;;;;;;;3.80;3.40;;;15.00;99.90;;;15.00;69.99;94456.53;5009404;28;20833;-68
2021/08/25 01:49:53;;;;;;;3.30;3.10;;;13.80;99.90;;;15.02;69.88;94460.53;5011108;28;20202;-69
2021/08/25 01:52:22;;;;;;;4.20;3.80;;;13.70;99.90;;;15.02;70.31;94455.19;5007364;28;20220;-68
2021/08/25 01:54:54;;;;;;;3.97;3.67;;;13.80;99.90;;;15.06;70.26;94450.09;5004724;28;20193;-67
2021/08/25 01:57:21;;;;;;;3.80;3.50;;;13.80;99.90;;;15.00;70.25;94453.88;5014761;28;20219;-67
2021/08/25 01:59:47;;;;;;;3.73;3.43;;;13.70;99.90;;;14.94;70.30;94447.75;5005412;28;20223;-68
2021/08/25 02:02:13;;;;;;;4.03;3.63;;;14.60;99.90;;;14.91;70.17;94459.00;5009708;28;20193;-69
2021/08/25 02:04:39;;;;;;;3.73;3.43;;;13.70;99.90;;;14.89;70.18;94456.63;5009102;28;20208;-68
2021/08/25 02:07:10;;;;;;;4.37;3.80;;;;;;;14.82;70.26;94460.66;4993144;28;20207;-67
2021/08/25 02:09:36;;;;;;;3.80;3.50;;;;;;;14.86;70.35;94451.84;5010375;28;20216;-68
2021/08/25 02:12:02;;;;;;;3.80;3.50;;;14.50;99.90;;;14.86;70.33;94454.50;5014602;28;20221;-68
2021/08/25 02:14:28;;;;;;;3.73;3.43;;;12.80;99.90;;;14.84;70.32;94450.53;5010201;28;20539;-70
2021/08/25 02:16:54;;;;;;;3.97;3.63;;;14.30;99.90;;;14.86;70.52;94461.72;5016618;28;20225;-68
2021/08/25 02:19:20;;;;;;;3.80;3.50;;;13.60;99.90;;;14.91;70.43;94450.97;5011312;28;20201;-69
2021/08/25 02:21:48;;;;;;;3.80;3.50;;;13.50;99.90;;;14.92;70.48;94451.78;5008149;28;20201;-67
2021/08/25 02:24:14;;;;;;;3.60;3.30;;;14.20;99.90;;;14.87;70.42;94444.63;4992359;28;20651;-69
2021/08/25 02:26:40;;;;;;;3.80;3.50;;;14.60;99.90;;;14.85;70.61;94446.75;5007077;28;20197;-68
2021/08/25 02:29:06;;;;;;;3.60;3.30;;;14.50;99.90;;;14.85;70.31;94446.75;4991700;28;20211;-66
2021/08/25 02:31:32;;;;;;;4.77;3.80;;;14.00;99.90;;;14.85;70.29;94444.91;5009671;28;20735;-69
2021/08/25 02:33:58;;;;;;;4.13;3.80;;;14.40;99.90;;;14.89;70.66;94448.59;5002402;28;20770;-68
2021/08/25 02:36:24;;;;;;;3.90;3.60;;;13.50;99.90;;;14.87;70.44;94450.75;5009472;28;20189;-67
2021/08/25 02:38:50;;;;;;;3.70;3.40;;;13.80;99.90;;;14.86;70.69;94443.03;5009852;28;20191;-69
2021/08/25 02:41:18;;;;;;;4.10;3.70;;;13.60;99.90;;;14.84;70.67;94450.53;5013549;28;20197;-67
2021/08/25 02:43:45;;;;;;;4.40;4.00;;;13.60;99.90;;;14.80;70.89;94444.94;5007147;28;20648;-68
2021/08/25 02:46:12;;;;;;;4.17;3.80;;;14.00;99.90;;;14.79;70.53;94447.88;5011641;28;20572;-68
2021/08/25 02:48:40;;;;;;;4.13;3.83;;;14.50;99.90;;;14.79;70.70;94448.69;5008363;28;20201;-69
2021/08/25 02:51:06;;;;;;;4.13;3.70;;;14.60;99.90;;;14.78;70.75;94439.06;5017272;28;20203;-68
2021/08/25 02:53:32;;;;;;;3.90;3.50;;;14.30;99.90;;;14.82;70.89;94444.66;5015412;28;20235;-68
2021/08/25 02:55:58;;;;;;;4.40;4.00;;;14.10;99.90;;;14.87;70.81;94445.41;5009571;28;20265;-68
2021/08/25 02:58:24;;;;;;;4.17;3.80;;;13.70;99.90;;;14.81;70.85;94438.50;5019715;28;20254;-69
2021/08/25 03:00:50;;;;;;;4.20;3.80;;;13.60;99.90;;;14.85;71.02;94447.56;5006502;28;20195;-69
2021/08/25 03:03:15;;;;;;;3.90;3.60;;;14.20;99.90;;;14.86;70.98;94435.03;5017106;28;20215;-66
2021/08/25 03:05:44;;;;;;;3.90;3.60;;;14.40;99.90;;;14.81;70.75;94430.50;4991420;28;20203;-67
2021/08/25 03:08:13;;;;;;;3.87;3.57;;;14.10;99.90;;;14.87;70.94;94434.72;4999251;28;20229;-69
2021/08/25 03:10:39;;;;;;;4.73;4.33;;;14.20;99.90;;;14.84;70.94;94439.84;5006041;28;20196;-69
2021/08/25 03:13:05;;;;;;;3.90;3.60;;;14.10;99.90;;;14.82;70.80;94440.13;5013160;28;20219;-67
2021/08/25 03:15:31;;;;;;;3.90;3.60;;;14.30;99.90;;;14.96;70.94;94439.50;5017427;28;20200;-69
2021/08/25 03:17:57;;;;;;;3.70;3.40;;;13.60;99.90;;;14.97;71.05;94441.09;5005783;28;20291;-69
2021/08/25 03:20:23;;;;;;;4.57;4.17;;;14.20;99.90;;;14.96;70.90;94432.28;4993938;28;20204;-68
2021/08/25 03:22:49;;;;;;;4.13;3.73;;;14.30;99.90;;;14.92;70.77;94430.44;5004675;28;20754;-68
2021/08/25 03:25:15;;;;;;;3.90;3.60;;;14.20;99.90;;;14.95;71.16;94424.53;5008655;28;20282;-68
2021/08/25 03:27:41;;;;;;;3.57;3.27;;;14.30;99.90;;;14.96;71.12;94423.47;5009068;28;20207;-68
2021/08/25 03:30:09;;;;;;;3.67;3.37;;;14.40;99.90;;;14.97;70.95;94433.88;4993004;28;20232;-67
2021/08/25 03:32:35;;;;;;;3.97;3.67;;;13.70;99.90;;;14.94;71.13;94428.31;5010936;28;20226;-69
2021/08/25 03:35:01;;;;;;;4.17;3.77;;;14.50;99.90;;;14.92;71.32;94423.22;4995076;28;20325;-69
2021/08/25 03:37:27;;;;;;;6.43;4.03;;;14.40;99.90;;;14.95;71.00;94421.88;4996199;28;20218;-68
2021/08/25 03:39:53;;;;;;;3.73;3.43;;;13.50;99.90;;;14.94;71.19;94410.38;5005214;28;20699;-69
2021/08/25 03:42:21;;;;;;;3.97;3.67;;;14.10;99.90;;;14.92;71.25;94412.56;4984385;28;20185;-68
2021/08/25 03:44:47;;;;;;;3.90;3.60;;;14.40;99.90;;;14.91;71.11;94410.94;5013672;28;20227;-68
2021/08/25 03:47:13;;;;;;;4.40;4.00;;;13.70;99.90;;;14.86;71.34;94411.00;5014439;28;20201;-67
2021/08/25 03:49:40;;;;;;;4.87;4.10;;;13.20;99.90;;;14.90;71.35;94406.72;5015012;28;20197;-67
2021/08/25 03:52:06;;;;;;;5.57;4.27;;;14.50;99.90;;;14.83;71.26;94393.69;5010231;28;20220;-68
2021/08/25 03:54:34;;;;;;;5.50;4.80;;;14.00;99.90;;;14.79;71.15;94416.66;4989387;28;20198;-68
2021/08/25 03:57:01;;;;;;;4.97;4.57;;;13.80;99.90;;;14.79;71.38;94410.50;5005420;28;20189;-68
2021/08/25 03:59:27;;;;;;;5.40;4.90;;;13.50;99.90;;;14.77;71.37;94407.34;5009346;28;20221;-68
2021/08/25 04:01:52;;;;;;;5.30;4.90;;;13.10;99.90;;;14.73;71.33;94392.94;5006746;28;20194;-67
2021/08/25 04:04:21;;;;;;;5.13;4.73;;;13.40;99.90;;;14.75;71.34;94404.94;4997466;28;20204;-67
2021/08/25 04:06:47;;;;;;;5.23;4.50;;;14.10;99.90;;;14.78;71.37;94406.25;5014122;28;20206;-67
2021/08/25 04:09:13;;;;;;;5.60;5.10;;;13.50;99.90;;;14.80;71.53;94406.78;5004128;28;20193;-67
2021/08/25 04:11:41;;;;;;;5.80;5.30;;;14.20;99.90;;;14.74;71.40;94406.00;5009195;28;20193;-68
2021/08/25 04:14:06;;;;;;;5.63;5.17;;;14.30;99.90;;;14.79;71.44;94405.97;5004878;28;20246;-67
2021/08/25 04:16:33;;;;;;;5.93;5.43;;;14.20;99.90;;;14.78;71.45;94403.56;4972661;28;20270;-68
2021/08/25 04:18:59;;;;;;;6.03;5.30;;;14.20;99.90;;;14.73;71.31;94404.44;4990444;28;20246;-67
2021/08/25 04:21:28;;;;;;;5.80;5.30;;;13.50;99.90;;;14.84;71.64;94411.25;5001836;28;20276;-67
2021/08/25 04:23:54;;;;;;;6.17;5.57;;;14.50;99.90;;;14.77;71.62;94410.00;5020619;28;20288;-67
2021/08/25 04:26:22;;;;;;;6.53;5.93;;;13.70;99.90;;;14.78;71.47;94406.25;4987789;28;20196;-68
2021/08/25 04:28:50;;;;;;;6.83;6.23;;;13.30;99.90;;;14.76;71.62;94409.19;5005694;28;20566;-69
2021/08/25 04:31:16;;;;;;;7.27;5.93;;;14.40;99.90;;;14.77;71.65;94412.69;5006373;28;20232;-69
2021/08/25 04:33:43;;;;;;;6.80;6.00;;;;;;;14.74;71.71;94411.34;5001638;28;20212;-67
2021/08/25 04:36:09;;;;;;;6.40;5.80;;;14.20;99.90;;;14.79;71.72;94421.19;5004635;28;20736;-67
2021/08/25 04:38:37;;;;;;;7.00;6.33;;;14.30;99.90;;;14.75;71.68;94409.47;5004182;28;20294;-68
2021/08/25 04:41:06;;;;;;;6.60;6.00;;;14.50;99.90;;;14.79;71.64;94415.84;5006481;28;20188;-69
2021/08/25 04:43:32;;;;;;;6.67;6.17;;;13.50;99.90;;;14.81;71.92;94409.16;5000940;28;20193;-68
2021/08/25 04:45:59;;;;;;;6.53;5.90;;;13.40;99.90;;;14.80;71.82;94415.59;5001753;28;20256;-67
2021/08/25 04:48:25;;;;;;;6.93;6.33;;;13.80;99.90;;;14.71;71.89;94406.56;5002748;28;20202;-69
2021/08/25 04:50:55;;;;;;;7.30;6.60;;;13.50;99.90;;;14.73;71.87;94412.44;5003388;28;20638;-68
2021/08/25 04:53:20;;;;;;;7.57;6.97;;;14.20;99.90;;;14.65;72.08;94402.34;5000158;28;20222;-67
2021/08/25 04:55:46;;;;;;;7.30;6.70;;;14.50;99.90;;;14.68;71.88;94409.78;4991119;28;20193;-68
2021/08/25 04:58:12;;;;;;;6.80;6.20;;;14.20;99.90;;;14.62;71.77;94404.75;5003110;28;20504;-69
2021/08/25 05:00:38;;;;;;;8.00;7.30;;;13.60;99.90;;;14.64;71.99;94408.72;5019400;28;20288;-68
2021/08/25 05:03:04;;;;;;;7.63;6.83;;;14.60;99.90;;;14.63;72.09;94411.69;5005906;28;20640;-68
2021/08/25 05:05:30;;;;;;;7.90;7.20;;;13.40;99.90;;;14.60;72.17;94412.25;4968390;28;20200;-68
2021/08/25 05:07:56;;;;;;;7.70;7.00;;;13.70;99.90;;;14.65;72.19;94406.88;5001981;28;20250;-68
2021/08/25 05:10:22;;;;;;;7.30;6.60;;;13.10;99.90;;;14.61;71.89;94411.97;4989306;28;20228;-69
2021/08/25 05:12:48;;;;;;;7.67;7.00;;;12.70;99.90;;;14.58;71.99;94403.72;5001092;28;20221;-67
2021/08/25 05:15:14;;;;;;;7.47;6.87;;;14.10;99.90;;;14.61;71.89;94413.81;5004115;28;20198;-68
2021/08/25 05:17:40;;;;;;;7.00;6.40;;;13.80;99.90;;;14.70;72.28;94418.31;5004018;28;20202;-68
2021/08/25 05:20:07;;;;;;;7.67;6.77;;;14.00;99.90;;;14.77;71.86;94423.34;4982138;28;20190;-69
2021/08/25 05:22:35;;;;;;;7.13;6.53;;;14.60;99.90;;;14.85;72.24;94420.88;5000880;28;20526;-69
2021/08/25 05:25:01;;;;;;;6.87;6.27;;;13.60;99.90;;;14.89;72.12;94413.91;5002939;28;20202;-69
2021/08/25 05:27:27;;;;;;;7.13;6.53;;;13.60;99.90;;;15.01;71.97;94416.22;4998382;28;20225;-69
2021/08/25 05:29:54;;;;;;;7.37;6.60;;;14.80;99.90;;;15.06;72.27;94420.72;5002345;28;20240;-68
2021/08/25 05:32:21;;;;;;;7.47;6.70;;;13.70;99.90;;;15.06;72.56;94418.06;4986047;28;20267;-68
2021/08/25 05:34:49;;;;;;;7.00;6.33;;;14.40;99.90;;;15.17;72.22;94419.56;4994949;28;20199;-67
2021/08/25 05:37:15;;;;;;;7.17;6.27;;;13.90;99.90;;;15.19;72.35;94414.75;5004362;28;20196;-66
2021/08/25 05:39:44;;;;;;;6.33;5.73;;;13.70;99.90;;;15.23;72.10;94418.44;5000473;28;20195;-67
2021/08/25 05:42:11;;;;;;;6.50;5.90;;;;;;;15.25;72.37;94433.09;5011979;28;20200;-66
2021/08/25 05:44:36;;;;;;;7.33;6.73;;;13.80;99.90;;;15.32;72.20;94422.09;5007129;28;20206;-68
2021/08/25 05:47:03;;;;;;;7.03;6.20;;;;;;;15.44;72.19;94425.22;4981177;28;20657;-66
2021/08/25 05:49:29;;;;;;;6.60;5.70;;;15.20;99.90;;;15.51;72.32;94432.94;5001292;28;20233;-67
2021/08/25 05:51:55;;;;;;;6.07;5.47;;;14.30;99.90;;;15.54;72.42;94422.47;5010744;28;20224;-69
2021/08/25 05:54:21;;;;;;;6.00;5.50;;;14.50;99.90;;;15.66;72.38;94430.09;5001865;28;20241;-72
2021/08/25 05:56:47;;;;;;;6.50;6.00;;;;;;;15.72;72.38;94434.31;5004987;28;20201;-71
2021/08/25 05:59:13;;;;;;;6.10;5.60;;;14.80;99.90;;;15.88;72.24;94433.09;4985424;28;20588;-68
2021/08/25 06:01:41;;;;;;;5.83;5.33;;;13.90;99.90;;;15.89;72.42;94423.97;4986688;28;20205;-67
2021/08/25 06:04:07;;;;;;;5.40;5.00;;;14.80;99.90;;;15.98;72.23;94429.50;5017500;28;20679;-68
2021/08/25 06:06:36;;;;;;;6.23;5.60;;;15.20;99.90;;;15.95;72.10;94422.06;5006598;28;20208;-71
2021/08/25 06:09:06;;;;;;;6.07;5.47;;;14.70;99.90;;;15.87;72.25;94426.16;4991754;28;20207;-71
2021/08/25 06:11:39;;;;;;;5.47;4.97;;;15.20;99.90;;;15.99;72.33;94426.53;5007187;28;20253;-72
2021/08/25 06:14:07;;;;;;;5.23;4.73;;;15.10;99.90;;;16.04;72.25;94418.47;4988371;28;20318;-69
2021/08/25 06:16:33;;;;;;;5.57;5.07;;;15.20;99.90;;;15.99;72.37;94421.19;5009346;28;20641;-71
2021/08/25 06:18:59;;;;;;;6.00;5.50;;;14.90;99.90;;;15.82;72.37;94412.81;5007167;28;20219;-71
2021/08/25 06:21:25;;;;;;;5.53;5.03;;;15.00;99.90;;;15.86;72.22;94409.31;4996146;28;20235;-70
2021/08/25 06:23:52;;;;;;;5.27;4.83;;;14.90;99.90;;;15.90;72.17;94420.22;5006251;28;20284;-70
2021/08/25 06:26:18;;;;;;;5.80;5.27;;;13.60;99.90;;;15.88;72.33;94427.75;4981458;28;20206;-71
2021/08/25 06:28:44;;;;;;;6.20;5.13;;;14.80;99.90;;;15.84;72.15;94434.72;5009029;28;20211;-71
2021/08/25 06:31:12;;;;;;;5.50;5.00;;;15.50;99.90;;;15.80;72.13;94436.38;5007991;28;20226;-71
2021/08/25 06:33:41;;;;;;;6.03;4.93;;;15.10;99.90;;;15.72;72.06;94445.00;5031779;28;20249;-71
2021/08/25 06:36:07;;;;;;;4.90;4.50;;;14.60;99.90;;;15.64;72.13;94442.97;5011015;28;20649;-70
2021/08/25 06:38:33;;;;;;;8.20;5.00;;;14.50;99.90;;;15.63;72.08;94447.50;5012374;28;20839;-71
2021/08/25 06:40:58;;;;;;;5.53;5.03;;;14.50;99.90;;;15.50;72.05;94440.16;5006499;28;20207;-71
2021/08/25 06:43:25;;;;;;;5.97;5.40;;;14.50;99.90;;;15.43;72.11;94439.63;4999475;28;20216;-72
2021/08/25 06:45:51;;;;;;;5.13;4.73;;;14.80;99.90;;;15.45;72.10;94455.38;5028403;28;20369;-70
2021/08/25 06:48:17;;;;;;;5.17;4.77;;;14.40;99.90;;;15.40;72.30;94440.19;5015411;28;20291;-70
2021/08/25 06:50:45;;;;;;;5.43;4.93;;;14.20;99.90;;;15.44;72.20;94459.94;5005137;28;20721;-70
2021/08/25 06:53:11;;;;;;;5.30;4.80;;;14.70;99.90;;;15.42;72.12;94443.38;5004494;28;20221;-69
2021/08/25 06:55:37;;;;;;;6.57;5.20;;;14.20;99.90;;;15.39;72.30;94450.09;5011995;28;20190;-70
2021/08/25 06:58:03;;;;;;;6.07;5.47;;;14.20;99.90;;;15.43;72.15;94442.31;5006748;28;20264;-71
2021/08/25 07:00:29;;;;;;;5.47;4.97;;;14.20;99.90;;;15.40;72.32;94441.00;4988250;28;20206;-70
2021/08/25 07:02:55;;;;;;;6.20;5.60;;;14.00;99.90;;;15.41;72.14;94431.91;5004190;28;20194;-71
2021/08/25 07:05:21;;;;;;;5.80;5.17;;;14.60;99.90;;;15.47;72.36;94430.00;5006345;28;20335;-70
2021/08/25 07:07:52;;;;;;;6.20;5.60;;;14.30;99.90;;;15.58;72.17;94444.09;5019980;28;20284;-69
2021/08/25 07:10:18;;;;;;;5.40;5.00;;;14.90;99.90;;;15.53;72.30;94438.78;5005907;28;20201;-70
2021/08/25 07:12:43;;;;;;;5.60;5.10;;;15.20;99.90;;;15.63;72.54;94438.69;4981021;28;20233;-71
2021/08/25 07:15:16;;;;;;;5.47;4.97;;;14.40;99.90;;;15.66;72.35;94446.13;5002724;28;20196;-71
2021/08/25 07:17:43;;;;;;;5.10;4.60;;;14.50;99.90;;;15.64;71.95;94437.63;4998832;28;20201;-72
2021/08/25 07:20:11;;;;;;;6.10;4.70;;;14.40;99.90;;;15.69;72.17;94449.03;5003996;28;20683;-69
2021/08/25 07:22:40;;;;;;;5.00;4.60;;;14.70;99.90;;;15.75;72.33;94445.22;5005401;28;21588;-68
2021/08/25 07:25:08;;;;;;;4.87;4.47;;;14.70;99.90;;;15.86;72.30;94429.88;5008686;28;20201;-69
2021/08/25 07:27:36;;;;;;;4.67;4.27;;;14.10;99.90;;;15.90;72.17;94429.03;5005030;28;20193;-68
2021/08/25 07:30:05;;;;;;;5.00;4.60;;;14.90;99.90;;;15.89;72.15;94445.34;5012931;28;20200;-69
2021/08/25 07:32:31;;;;;;;4.77;4.37;;;14.50;99.90;;;15.98;72.34;94443.69;5008931;28;20219;-71
2021/08/25 07:34:58;;;;;;;5.73;4.37;;;15.10;99.90;;;16.11;72.10;94443.00;5001571;28;20201;-70
2021/08/25 07:37:24;;;;;;;4.93;4.53;;;15.00;99.90;;;16.17;72.32;94444.53;5007455;28;20197;-71
2021/08/25 07:39:50;;;;;;;4.93;4.53;;;15.10;99.90;;;16.26;72.36;94445.47;4986249;28;20539;-71
2021/08/25 07:42:16;;;;;;;4.70;4.07;;;14.70;99.90;;;16.22;72.25;94439.09;5004294;28;20271;-69
2021/08/25 07:44:42;;;;;;;4.23;3.83;;;15.20;99.90;;;16.24;72.09;94436.94;5009773;28;20595;-70
2021/08/25 07:47:08;;;;;;;4.90;4.37;;;15.30;99.90;;;16.25;72.06;94433.16;5002215;28;20217;-71
2021/08/25 07:49:36;;;;;;;4.47;4.07;;;15.30;99.90;;;16.34;72.32;94444.06;5005901;28;20240;-72
2021/08/25 07:52:03;;;;;;;4.50;4.10;;;15.20;99.90;;;16.34;72.21;94436.81;4989651;28;20275;-72
2021/08/25 07:54:30;;;;;;;5.33;4.10;;;15.60;99.90;;;16.52;72.08;94439.81;5006569;28;20197;-69
2021/08/25 07:56:56;;;;;;;4.70;4.30;;;15.30;99.90;;;16.54;72.00;94432.28;5005675;28;20193;-73
2021/08/25 07:59:22;;;;;;;4.30;4.00;;;15.20;99.90;;;16.55;71.94;94421.34;4990843;28;20185;-69
2021/08/25 08:01:49;;;;;;;5.23;4.00;;;15.70;99.90;;;16.67;71.88;94439.63;5008587;28;20220;-70
2021/08/25 08:04:15;;;;;;;4.10;3.73;;;15.50;99.90;;;16.76;71.91;94446.72;5010510;28;20321;-70
2021/08/25 08:06:43;;;;;;;5.17;3.83;;;16.20;99.90;;;17.03;71.95;94434.56;5010392;28;20243;-69
2021/08/25 08:09:12;;;;;;;4.53;4.17;;;16.00;99.90;;;16.84;72.02;94443.41;4994550;28;20193;-70
2021/08/25 08:11:38;;;;;;;4.23;3.83;;;15.70;99.90;;;16.80;72.21;94452.28;4991907;28;20251;-70
2021/08/25 08:14:09;;;;;;;4.30;3.90;;;15.50;99.90;;;16.72;71.97;94439.56;5010943;28;20279;-72
2021/08/25 08:16:35;;;;;;;4.63;4.23;;;15.90;99.90;;;16.78;71.86;94455.28;4992120;28;20208;-70
2021/08/25 08:19:28;;;;;;;4.60;4.07;;;14.90;99.90;;;16.97;72.12;94467.84;4992848;28;20193;-71
2021/08/25 08:21:55;;;;;;;4.07;3.77;;;15.80;99.90;;;16.81;72.07;94449.34;5014972;28;20200;-73
2021/08/25 08:24:21;;;;;;;4.50;4.10;;;14.80;99.90;;;16.94;71.99;94458.53;5014609;28;20189;-73
2021/08/25 08:26:47;;;;;;;4.70;4.30;;;15.80;99.90;;;16.88;72.06;94438.28;5031365;28;20226;-73
2021/08/25 08:29:14;;;;;;;4.57;4.17;;;15.70;99.90;;;16.96;71.86;94456.34;5013326;28;20303;-72
2021/08/25 08:31:40;;;;;;;4.10;3.67;;;15.80;99.90;;;17.01;71.84;94444.78;4999038;28;20215;-70
2021/08/25 08:34:07;;;;;;;3.80;3.50;;;15.90;99.90;;;17.22;71.84;94462.13;4997548;28;20216;-69
2021/08/25 08:36:33;;;;;;;4.00;3.70;;;16.50;99.90;;;17.47;72.03;94450.19;5020091;28;20197;-73
2021/08/25 08:39:00;;;;;;;4.03;3.63;;;16.30;99.90;;;17.65;71.77;94449.38;5031272;28;20645;-72
2021/08/25 08:41:28;;;;;;;4.27;3.97;;;15.80;99.90;;;17.48;71.48;94449.91;5032898;28;20664;-71
2021/08/25 08:43:57;;;;;;;4.70;3.70;;;16.00;99.90;;;17.42;71.73;94441.19;5012394;28;20207;-72
2021/08/25 08:46:24;;;;;;;4.87;4.07;;;16.60;99.90;;;17.72;71.63;94465.91;5012666;28;20886;-73
2021/08/25 08:48:52;;;;;;;3.60;3.30;;;16.50;99.90;;;18.16;71.74;94474.22;5013813;28;20248;-70
2021/08/25 08:51:21;;;;;;;3.97;3.60;;;16.50;99.90;;;18.24;71.55;94452.03;4993952;28;20256;-72
2021/08/25 08:53:48;;;;;;;3.73;3.43;;;16.20;99.90;;;18.26;71.55;94462.50;5009219;28;20250;-72
2021/08/25 08:56:15;;;;;;;4.23;3.83;;;17.30;99.90;;;18.49;71.21;94456.13;4997354;28;20201;-70
2021/08/25 08:58:42;;;;;;;3.60;3.30;;;17.60;99.90;;;18.57;71.05;94449.28;4992825;28;20200;-71
2021/08/25 09:01:10;;;;;;;3.80;3.50;;;18.00;99.90;;;18.76;71.46;94464.16;5010140;28;20193;-69
2021/08/25 09:03:41;;;;;;;4.00;3.70;;;18.30;99.90;;;19.39;71.23;94461.38;4998653;28;21104;-71
2021/08/25 09:06:08;;;;;;;5.20;3.53;;;18.70;99.90;;;19.69;71.07;94457.19;4997821;28;20232;-68
2021/08/25 09:08:39;;;;;;;3.83;3.53;;;18.60;99.90;;;19.69;71.06;94451.00;5009979;28;20264;-70
2021/08/25 09:11:17;;;;;;;3.53;3.30;;;18.30;99.90;;;19.52;70.76;94437.44;5024645;28;20275;-65
2021/08/25 09:13:49;;;;;;;3.83;3.10;;;18.10;99.90;;;19.45;70.72;94456.69;4988277;28;20261;-68
2021/08/25 09:16:44;;;;;;;4.00;3.60;;;18.30;99.90;;;19.38;70.62;94462.47;4992179;28;20204;-70
2021/08/25 09:19:21;;;;;;;3.60;3.17;;;17.70;99.90;;;19.04;70.48;94448.75;5004428;28;20618;-71
2021/08/25 09:21:52;;;;;;;3.53;3.23;;;18.30;99.90;;;18.95;70.53;94450.59;5002725;28;20206;-70
2021/08/25 09:24:37;;;;;;;2.60;2.40;;;18.10;99.90;;;18.99;70.46;94450.78;5002418;28;20238;-71
2021/08/25 09:27:15;;;;;;;3.17;2.90;;;18.10;99.90;;;19.38;70.30;94459.78;5001752;28;20261;-69
2021/08/25 09:29:52;;;;;;;3.37;3.17;;;18.30;99.90;;;19.15;70.33;94431.31;4984922;28;20716;-68
2021/08/25 09:32:24;;;;;;;3.50;3.20;;;17.90;99.90;;;18.92;70.02;94435.06;5018741;28;20229;-68
2021/08/25 09:34:56;;;;;;;3.90;3.20;;;18.00;99.90;;;19.20;69.93;94463.47;5006656;28;20201;-70
2021/08/25 09:37:26;;;;;;;3.43;3.13;;;18.20;99.90;;;18.87;69.98;94424.44;4996731;28;20290;-69
2021/08/25 09:39:57;;;;;;;3.47;3.17;;;17.80;99.90;;;18.45;69.70;94447.88;5004470;28;20197;-68
2021/08/25 09:42:24;;;;;;;3.53;3.23;;;17.60;99.90;;;18.53;69.95;94440.25;5006741;28;20684;-69
2021/08/25 09:45:07;;;;;;;3.77;3.47;;;17.60;99.90;;;18.34;69.86;94465.25;4993452;28;20356;-68
2021/08/25 09:47:51;;;;;;;4.00;3.70;;;17.40;99.90;;;18.36;69.82;94481.88;5006994;28;20209;-67
2021/08/25 09:50:25;;;;;;;4.20;3.80;;;17.40;99.90;;;18.28;69.99;94450.34;4993568;28;20209;-71
2021/08/25 09:52:52;;;;;;;3.80;3.50;;;17.10;99.90;;;18.11;69.86;94447.47;5022122;28;20275;-68
2021/08/25 09:55:34;;;;;;;4.00;3.70;;;17.40;99.90;;;18.19;69.73;94470.94;5012826;28;20208;-69
2021/08/25 09:58:10;;;;;;;3.60;3.30;;;17.20;99.90;;;18.26;69.76;94460.59;5015255;28;20199;-70
2021/08/25 10:00:37;;;;;;;3.63;3.33;;;17.40;99.90;;;18.80;69.39;94465.13;5018054;28;20198;-72
2021/08/25 10:03:03;;;;;;;4.67;3.70;;;17.30;99.90;;;18.94;69.56;94465.09;5023483;28;20202;-75
2021/08/25 10:05:29;;;;;;;3.70;3.40;;;17.80;99.90;;;19.47;69.32;94486.00;5020460;28;20689;-69
2021/08/25 10:07:57;;;;;;;3.43;3.13;;;18.90;99.90;;;19.94;69.34;94478.06;5017701;28;20214;-70
2021/08/25 10:10:23;;;;;;;3.73;3.40;;;18.90;99.90;;;20.00;69.41;94441.06;5014539;28;20703;-69
2021/08/25 10:12:50;;;;;;;3.40;3.07;;;18.80;99.90;;;20.06;69.19;94423.66;5019027;28;20224;-74
2021/08/25 10:15:34;;;;;;;3.57;3.27;;;19.00;99.90;;;19.97;69.14;94463.22;5013804;28;20192;-72
2021/08/25 10:18:24;;;;;;;3.87;3.57;;;19.00;99.90;;;20.54;69.01;94463.31;5018379;28;20193;-71
2021/08/25 10:20:57;;;;;;;5.37;3.47;;;19.40;99.90;;;20.38;69.08;94441.41;5017568;28;20207;-71
2021/08/25 10:23:54;;;;;;;3.80;3.50;;;19.50;99.90;;;20.18;68.90;94442.69;5015981;28;20523;-71
2021/08/25 10:26:26;;;;;;;3.37;3.10;;;19.20;99.90;;;20.10;68.78;94438.09;5018020;28;20229;-72